createdAt,value
2023-04-08T00:01:44.425Z,102182.44
2023-04-08T00:04:11.858Z,102182.84
2023-04-08T00:06:39.160Z,102184.84
2023-04-08T00:09:06.657Z,102197.47
2023-04-08T00:11:33.965Z,102189.50
2023-04-08T00:14:04.037Z,102184.69
2023-04-08T00:16:32.979Z,102181.56
2023-04-08T00:19:00.384Z,102178.41
2023-04-08T00:21:27.690Z,102183.09
2023-04-08T00:23:55.472Z,102185.47
2023-04-08T00:26:22.775Z,102174.44
2023-04-08T00:28:50.185Z,102172.09
2023-04-08T00:31:17.617Z,102177.22
2023-04-08T00:33:46.240Z,102180.84
2023-04-08T00:36:13.384Z,102178.44
2023-04-08T00:38:40.770Z,102190.28
2023-04-08T00:41:08.081Z,102183.13
2023-04-08T00:43:35.397Z,102180.41
2023-04-08T00:46:03.401Z,102185.16
2023-04-08T00:48:30.824Z,102180.31
2023-04-08T00:50:59.415Z,102178.31
2023-04-08T00:53:26.700Z,102175.53
2023-04-08T00:55:54.014Z,102175.16
2023-04-08T00:58:21.434Z,102168.84
2023-04-08T01:00:54.318Z,102172.81
2023-04-08T01:03:33.086Z,102168.00
2023-04-08T01:06:10.677Z,102166.41
2023-04-08T01:08:39.930Z,102162.41
2023-04-08T01:11:11.826Z,102150.47
2023-04-08T01:13:41.904Z,102154.06
2023-04-08T01:16:12.603Z,102144.22
2023-04-08T01:18:41.466Z,102150.19
2023-04-08T01:21:11.634Z,102158.41
2023-04-08T01:23:46.598Z,102152.09
2023-04-08T01:26:22.930Z,102148.22
2023-04-08T01:28:54.937Z,102149.00
2023-04-08T01:31:24.169Z,102144.25
2023-04-08T01:33:51.986Z,102145.41
2023-04-08T01:36:21.237Z,102156.53
2023-04-08T01:38:49.633Z,102165.25
2023-04-08T01:41:19.827Z,102155.34
2023-04-08T01:43:48.575Z,102157.72
2023-04-08T01:46:16.745Z,102158.44
2023-04-08T01:48:45.220Z,102160.88
2023-04-08T01:51:13.048Z,102149.00
2023-04-08T01:53:40.405Z,102156.88
2023-04-08T01:56:15.120Z,102154.97
2023-04-08T01:58:49.063Z,102148.22
2023-04-08T02:01:20.034Z,102139.34
2023-04-08T02:03:50.936Z,102137.72
2023-04-08T02:06:18.263Z,102124.28
2023-04-08T02:08:45.669Z,102117.97
2023-04-08T02:11:13.921Z,102110.16
2023-04-08T02:13:41.486Z,102105.38
2023-04-08T02:16:16.216Z,102109.25
2023-04-08T02:18:51.552Z,102102.19
2023-04-08T02:21:25.966Z,102096.25
2023-04-08T02:23:54.478Z,102097.38
2023-04-08T02:26:23.160Z,102079.63
2023-04-08T02:28:52.447Z,102067.25
2023-04-08T02:31:26.272Z,102071.25
2023-04-08T02:33:55.832Z,102070.50
2023-04-08T02:36:23.794Z,102074.81
2023-04-08T02:38:52.845Z,102059.34
2023-04-08T02:41:20.177Z,102056.19
2023-04-08T02:43:48.802Z,102048.31
2023-04-08T02:46:16.204Z,102043.13
2023-04-08T02:48:45.258Z,102046.69
2023-04-08T02:51:12.620Z,102042.34
2023-04-08T02:53:40.144Z,102033.19
2023-04-08T02:56:10.409Z,102026.00
2023-04-08T02:58:37.846Z,102014.22
2023-04-08T03:01:05.329Z,101999.50
2023-04-08T03:03:32.750Z,101999.16
2023-04-08T03:06:01.388Z,101986.06
2023-04-08T03:08:28.576Z,101978.56
2023-04-08T03:10:55.862Z,101965.06
2023-04-08T03:13:23.188Z,101958.75
2023-04-08T03:15:50.375Z,101942.13
2023-04-08T03:18:17.582Z,101933.44
2023-04-08T03:20:44.816Z,101921.13
2023-04-08T03:23:13.421Z,101916.75
2023-04-08T03:25:40.766Z,101898.56
2023-04-08T03:28:08.062Z,101894.63
2023-04-08T03:30:35.314Z,101889.88
2023-04-08T03:33:02.695Z,101868.50
2023-04-08T03:35:29.881Z,101862.19
2023-04-08T03:37:57.143Z,101851.47
2023-04-08T03:40:25.757Z,101827.34
2023-04-08T03:42:53.040Z,101821.41
2023-04-08T03:45:20.443Z,101816.28
2023-04-08T03:47:47.852Z,101801.63
2023-04-08T03:50:15.058Z,101796.50
2023-04-08T03:52:42.262Z,101787.41
2023-04-08T03:55:09.734Z,101785.00
2023-04-08T03:57:38.317Z,101792.59
2023-04-08T04:00:07.018Z,101790.16
2023-04-08T04:02:39.548Z,101793.34
2023-04-08T04:05:07.703Z,101788.97
2023-04-08T04:07:34.880Z,101781.09
2023-04-08T04:10:02.297Z,101794.91
2023-04-08T04:12:29.703Z,101781.88
2023-04-08T04:14:58.347Z,101774.72
2023-04-08T04:17:25.683Z,101770.00
2023-04-08T04:19:53.040Z,101768.81
2023-04-08T04:22:20.280Z,101768.00
2023-04-08T04:24:48.071Z,101766.03
2023-04-08T04:27:15.593Z,101753.78
2023-04-08T04:29:42.931Z,101757.72
2023-04-08T04:32:11.597Z,101758.94
2023-04-08T04:34:39.008Z,101754.56
2023-04-08T04:37:06.256Z,101750.22
2023-04-08T04:39:33.624Z,101754.97
2023-04-08T04:42:00.877Z,101742.31
2023-04-08T04:44:28.132Z,101752.97
2023-04-08T04:46:55.472Z,101739.50
2023-04-08T04:49:24.412Z,101715.00
2023-04-08T04:51:51.677Z,101707.84
2023-04-08T04:54:19.011Z,101685.69
2023-04-08T04:56:46.193Z,101670.66
2023-04-08T04:59:13.624Z,101657.19
2023-04-08T05:01:40.999Z,101638.19
2023-04-08T05:04:08.418Z,101632.25
2023-04-08T05:06:37.071Z,101634.66
2023-04-08T05:09:04.535Z,101621.16
2023-04-08T05:11:31.917Z,101630.28
2023-04-08T05:13:59.213Z,101627.50
2023-04-08T05:16:26.557Z,101631.88
2023-04-08T05:18:53.876Z,101619.19
2023-04-08T05:21:21.249Z,101613.66
2023-04-08T05:23:50.083Z,101598.56
2023-04-08T05:26:18.269Z,101612.03
2023-04-08T05:28:47.318Z,101626.69
2023-04-08T05:31:16.421Z,101621.16
2023-04-08T05:33:43.898Z,101616.78
2023-04-08T05:36:11.427Z,101635.41
2023-04-08T05:38:39.014Z,101633.41
2023-04-08T05:41:07.571Z,101647.69
2023-04-08T05:43:35.115Z,101642.91
2023-04-08T05:46:06.545Z,101645.28
2023-04-08T05:48:33.843Z,101659.53
2023-04-08T05:51:01.099Z,101665.91
2023-04-08T05:53:28.445Z,101665.91
2023-04-08T05:55:55.744Z,101671.44
2023-04-08T05:58:24.398Z,101676.19
2023-04-08T06:00:51.665Z,101680.97
2023-04-08T06:03:20.693Z,101669.06
2023-04-08T06:05:48.412Z,101676.19
2023-04-08T06:08:16.312Z,101678.56
2023-04-08T06:10:49.343Z,101696.00
2023-04-08T06:13:16.776Z,101689.66
2023-04-08T06:15:45.382Z,101690.44
2023-04-08T06:18:12.711Z,101692.81
2023-04-08T06:20:39.942Z,101690.44
2023-04-08T06:23:07.254Z,101691.25
2023-04-08T06:25:34.468Z,101699.97
2023-04-08T06:28:01.978Z,101704.69
2023-04-08T06:30:29.420Z,101706.28
2023-04-08T06:32:58.134Z,101722.91
2023-04-08T06:35:25.639Z,101728.44
2023-04-08T06:37:53.314Z,101748.25
2023-04-08T06:40:20.745Z,101750.63
2023-04-08T06:42:48.028Z,101749.88
2023-04-08T06:45:36.566Z,101758.56
2023-04-08T06:48:06.376Z,101760.97
2023-04-08T06:50:35.576Z,101767.28
2023-04-08T06:53:02.880Z,101772.03
2023-04-08T06:55:30.070Z,101780.75
2023-04-08T06:57:57.377Z,101788.69
2023-04-08T07:00:24.770Z,101801.34
2023-04-08T07:02:52.188Z,101817.19
2023-04-08T07:05:20.800Z,101823.94
2023-04-08T07:07:48.202Z,101830.66
2023-04-08T07:10:15.597Z,101830.28
2023-04-08T07:12:42.847Z,101827.13
2023-04-08T07:15:11.142Z,101831.47
2023-04-08T07:17:38.588Z,101847.31
2023-04-08T07:20:07.100Z,101840.19
2023-04-08T07:22:35.835Z,101850.50
2023-04-08T07:25:03.051Z,101861.59
2023-04-08T07:27:30.306Z,101864.78
2023-04-08T07:29:57.674Z,101876.69
2023-04-08T07:32:25.109Z,101887.38
2023-04-08T07:34:52.355Z,101894.09
2023-04-08T07:37:19.782Z,101914.34
2023-04-08T07:39:48.393Z,101936.91
2023-04-08T07:42:15.702Z,101960.72
2023-04-08T07:44:42.926Z,101982.53
2023-04-08T07:47:10.291Z,101985.31
2023-04-08T07:49:37.762Z,101993.28
2023-04-08T07:52:05.478Z,102015.91
2023-04-08T07:54:32.879Z,102047.25
2023-04-08T07:57:01.649Z,102056.78
2023-04-08T07:59:29.389Z,102069.06
2023-04-08T08:01:56.904Z,102088.53
2023-04-08T08:04:24.644Z,102097.25
2023-04-08T08:06:52.076Z,102100.44
2023-04-08T08:09:19.327Z,102125.06
2023-04-08T08:11:46.639Z,102117.13
2023-04-08T08:14:15.967Z,102117.91
2023-04-08T08:16:43.187Z,102112.38
2023-04-08T08:19:10.415Z,102125.88
2023-04-08T08:21:37.902Z,102144.91
2023-04-08T08:24:05.293Z,102156.06
2023-04-08T08:26:35.071Z,102158.44
2023-04-08T08:29:03.323Z,102161.19
2023-04-08T08:31:32.112Z,102158.81
2023-04-08T08:33:59.324Z,102161.16
2023-04-08T08:36:26.707Z,102140.94
2023-04-08T08:38:53.990Z,102143.72
2023-04-08T08:41:21.436Z,102145.69
2023-04-08T08:43:49.454Z,102141.72
2023-04-08T08:46:17.946Z,102152.84
2023-04-08T08:48:46.722Z,102173.91
2023-04-08T08:51:14.241Z,102178.28
2023-04-08T08:53:41.544Z,102191.78
2023-04-08T08:56:18.991Z,102217.22
2023-04-08T08:58:46.703Z,102231.50
2023-04-08T09:01:33.849Z,102240.66
2023-04-08T09:04:11.398Z,102246.22
2023-04-08T09:06:38.930Z,102264.94
2023-04-08T09:09:06.357Z,102249.41
2023-04-08T09:11:33.703Z,102268.06
2023-04-08T09:14:00.991Z,102276.03
2023-04-08T09:16:29.654Z,102282.41
2023-04-08T09:19:09.941Z,102269.69
2023-04-08T09:21:38.041Z,102270.88
2023-04-08T09:24:05.685Z,102276.84
2023-04-08T09:26:33.307Z,102271.28
2023-04-08T09:29:11.000Z,102271.28
2023-04-08T09:31:46.119Z,102276.84
2023-04-08T09:34:16.562Z,102301.09
2023-04-08T09:36:44.080Z,102300.69
2023-04-08T09:39:12.051Z,102299.09
2023-04-08T09:41:39.796Z,102311.81
2023-04-08T09:44:09.708Z,102315.00
2023-04-08T09:46:40.789Z,102299.91
2023-04-08T09:49:25.327Z,102301.47
2023-04-08T09:51:57.441Z,102313.41
2023-04-08T09:54:37.673Z,102312.22
2023-04-08T09:57:10.594Z,102302.28
2023-04-08T09:59:41.953Z,102312.63
2023-04-08T10:02:16.387Z,102309.03
2023-04-08T10:04:48.617Z,102314.22
2023-04-08T10:07:15.886Z,102311.41
2023-04-08T10:09:43.973Z,102317.38
2023-04-08T10:12:11.306Z,102310.22
2023-04-08T10:14:39.332Z,102312.63
2023-04-08T10:17:24.880Z,102320.56
2023-04-08T10:19:53.817Z,102322.19
2023-04-08T10:22:47.788Z,102326.94
2023-04-08T10:25:29.551Z,102337.69
2023-04-08T10:27:57.029Z,102330.91
2023-04-08T10:30:43.007Z,102322.56
2023-04-08T10:33:11.416Z,102307.06
2023-04-08T10:35:42.434Z,102299.91
2023-04-08T10:38:09.832Z,102282.38
2023-04-08T10:40:38.211Z,102276.81
2023-04-08T10:43:05.592Z,102290.75
2023-04-08T10:45:33.397Z,102292.38
2023-04-08T10:48:12.282Z,102295.13
2023-04-08T10:50:41.283Z,102302.28
2023-04-08T10:53:08.550Z,102320.97
2023-04-08T10:55:35.942Z,102311.00
2023-04-08T10:58:07.202Z,102331.69
2023-04-08T11:00:36.365Z,102341.25
2023-04-08T11:03:04.515Z,102341.63
2023-04-08T11:05:32.338Z,102333.66
2023-04-08T11:08:01.268Z,102338.06
2023-04-08T11:10:28.998Z,102328.50
2023-04-08T11:12:56.949Z,102345.19
2023-04-08T11:15:25.065Z,102371.09
2023-04-08T11:17:53.817Z,102368.28
2023-04-08T11:20:21.348Z,102365.13
2023-04-08T11:22:50.097Z,102374.19
2023-04-08T11:25:18.958Z,102389.59
2023-04-08T11:27:46.881Z,102417.00
2023-04-08T11:30:14.564Z,102423.78
2023-04-08T11:32:42.008Z,102439.00
2023-04-08T11:35:09.731Z,102434.19
2023-04-08T11:37:38.232Z,102442.63
2023-04-08T11:40:09.988Z,102446.09
2023-04-08T11:42:39.631Z,102448.59
2023-04-08T11:45:11.276Z,102449.44
2023-04-08T11:47:39.428Z,102450.22
2023-04-08T11:50:07.949Z,102451.81
2023-04-08T11:52:45.497Z,102448.56
2023-04-08T11:55:22.172Z,102435.91
2023-04-08T11:57:51.107Z,102427.16
2023-04-08T12:00:19.072Z,102431.13
2023-04-08T12:02:46.667Z,102444.22
2023-04-08T12:05:14.177Z,102454.44
2023-04-08T12:07:41.695Z,102480.31
2023-04-08T12:10:10.028Z,102492.25
2023-04-08T12:12:37.345Z,102499.44
2023-04-08T12:15:07.714Z,102520.06
2023-04-08T12:17:35.319Z,102528.00
2023-04-08T12:20:02.642Z,102533.00
2023-04-08T12:22:29.893Z,102528.97
2023-04-08T12:24:59.240Z,102535.59
2023-04-08T12:27:26.823Z,102542.84
2023-04-08T12:29:54.584Z,102516.75
2023-04-08T12:32:23.800Z,102497.97
2023-04-08T12:34:53.578Z,102492.00
2023-04-08T12:37:20.818Z,102484.41
2023-04-08T12:39:48.072Z,102485.22
2023-04-08T12:42:15.570Z,102489.28
2023-04-08T12:44:42.836Z,102478.50
2023-04-08T12:47:10.166Z,102486.03
2023-04-08T12:52:09.036Z,102478.03
2023-04-08T12:54:36.328Z,102483.69
2023-04-08T12:57:03.759Z,102479.69
2023-04-08T12:59:31.054Z,102484.78
2023-04-08T13:01:58.684Z,102499.84
2023-04-08T13:04:26.007Z,102519.06
2023-04-08T13:06:54.669Z,102517.09
2023-04-08T13:09:21.885Z,102509.44
2023-04-08T13:11:49.651Z,102528.50
2023-04-08T13:14:17.314Z,102529.69
2023-04-08T13:16:44.677Z,102536.91
2023-04-08T13:19:11.956Z,102532.88
2023-04-08T13:21:39.177Z,102530.63
2023-04-08T13:24:08.414Z,102530.63
2023-04-08T13:26:35.884Z,102534.50
2023-04-08T13:29:03.379Z,102533.69
2023-04-08T13:31:30.999Z,102553.19
2023-04-08T13:33:58.538Z,102532.97
2023-04-08T13:36:26.571Z,102534.56
2023-04-08T13:38:54.872Z,102529.00
2023-04-08T13:41:27.960Z,102524.97
2023-04-08T13:43:55.299Z,102521.44
2023-04-08T13:46:22.478Z,102532.22
2023-04-08T13:48:50.198Z,102524.19
2023-04-08T13:51:17.845Z,102522.69
2023-04-08T13:53:45.117Z,102511.44
2023-04-08T13:56:12.287Z,102523.03
2023-04-08T13:58:41.027Z,102515.38
2023-04-08T14:01:08.301Z,102535.97
2023-04-08T14:03:35.761Z,102536.78
2023-04-08T14:06:03.191Z,102534.38
2023-04-08T14:08:30.590Z,102535.16
2023-04-08T14:10:58.024Z,102548.78
2023-04-08T14:13:25.343Z,102543.66
2023-04-08T14:15:54.069Z,102536.94
2023-04-08T14:18:21.356Z,102542.44
2023-04-08T14:20:48.706Z,102538.38
2023-04-08T14:23:16.060Z,102547.25
2023-04-08T14:25:43.517Z,102548.03
2023-04-08T14:28:11.108Z,102550.44
2023-04-08T14:30:38.488Z,102536.13
2023-04-08T14:33:07.171Z,102531.81
2023-04-08T14:35:34.886Z,102526.66
2023-04-08T14:38:02.639Z,102525.84
2023-04-08T14:40:29.853Z,102529.72
2023-04-08T14:42:57.114Z,102535.41
2023-04-08T14:45:24.346Z,102532.53
2023-04-08T14:47:51.742Z,102543.75
2023-04-08T14:50:21.092Z,102539.38
2023-04-08T14:52:48.328Z,102531.06
2023-04-08T14:55:15.791Z,102521.88
2023-04-08T14:57:43.284Z,102523.84
2023-04-08T15:00:11.613Z,102527.44
2023-04-08T15:02:39.168Z,102516.34
2023-04-08T15:05:07.050Z,102515.50
2023-04-08T15:07:35.761Z,102517.53
2023-04-08T15:10:03.050Z,102507.97
2023-04-08T15:12:30.315Z,102512.72
2023-04-08T15:14:57.525Z,102511.91
2023-04-08T15:17:25.008Z,102509.09
2023-04-08T15:19:52.464Z,102506.41
2023-04-08T15:22:19.817Z,102499.63
2023-04-08T15:24:48.934Z,102493.25
2023-04-08T15:27:16.220Z,102487.66
2023-04-08T15:29:43.573Z,102492.47
2023-04-08T15:32:10.833Z,102489.25
2023-04-08T15:34:38.095Z,102497.59
2023-04-08T15:37:05.383Z,102497.22
2023-04-08T15:39:32.822Z,102495.66
2023-04-08T15:42:01.474Z,102487.63
2023-04-08T15:44:30.899Z,102494.44
2023-04-08T15:46:58.236Z,102492.88
2023-04-08T15:49:25.645Z,102491.25
2023-04-08T15:51:52.903Z,102495.59
2023-04-08T15:54:20.118Z,102504.34
2023-04-08T15:56:47.606Z,102498.75
2023-04-08T15:59:16.189Z,102499.16
2023-04-08T16:01:43.502Z,102512.34
2023-04-08T16:04:11.231Z,102502.41
2023-04-08T16:06:38.635Z,102501.19
2023-04-08T16:09:05.874Z,102498.03
2023-04-08T16:11:33.886Z,102500.41
2023-04-08T16:14:01.089Z,102504.38
2023-04-08T16:16:29.862Z,102499.19
2023-04-08T16:18:57.157Z,102509.13
2023-04-08T16:21:24.381Z,102498.38
2023-04-08T16:23:52.002Z,102506.75
2023-04-08T16:26:19.527Z,102503.59
2023-04-08T16:28:46.714Z,102503.59
2023-04-08T16:31:14.052Z,102502.00
2023-04-08T16:33:42.841Z,102504.38
2023-04-08T16:36:10.207Z,102515.56
2023-04-08T16:38:37.397Z,102504.03
2023-04-08T16:41:04.805Z,102497.25
2023-04-08T16:43:32.166Z,102490.84
2023-04-08T16:45:59.470Z,102489.28
2023-04-08T16:48:26.726Z,102484.50
2023-04-08T16:50:55.322Z,102475.34
2023-04-08T16:53:22.481Z,102478.13
2023-04-08T16:55:49.753Z,102486.09
2023-04-08T16:58:17.076Z,102487.31
2023-04-08T17:00:44.351Z,102482.50
2023-04-08T17:03:11.727Z,102478.16
2023-04-08T17:05:39.086Z,102472.97
2023-04-08T17:08:07.813Z,102471.00
2023-04-08T17:10:35.244Z,102472.16
2023-04-08T17:13:02.711Z,102469.38
2023-04-08T17:15:30.046Z,102473.78
2023-04-08T17:17:57.385Z,102476.94
2023-04-08T17:20:24.627Z,102473.72
2023-04-08T17:22:52.023Z,102474.13
2023-04-08T17:25:20.670Z,102474.53
2023-04-08T17:27:47.963Z,102473.34
2023-04-08T17:30:15.250Z,102478.94
2023-04-08T17:32:42.590Z,102482.13
2023-04-08T17:35:09.898Z,102479.75
2023-04-08T17:37:37.185Z,102485.31
2023-04-08T17:40:05.362Z,102478.91
2023-04-08T17:42:33.938Z,102484.06
2023-04-08T17:45:04.078Z,102476.91
2023-04-08T17:47:31.681Z,102475.69
2023-04-08T17:49:59.084Z,102467.72
2023-04-08T17:52:26.291Z,102453.41
2023-04-08T17:54:54.033Z,102453.03
2023-04-08T17:57:21.242Z,102451.03
2023-04-08T17:59:49.928Z,102451.03
2023-04-08T18:02:17.402Z,102443.88
2023-04-08T18:04:44.913Z,102450.22
2023-04-08T18:07:12.082Z,102444.25
2023-04-08T18:09:39.384Z,102440.25
2023-04-08T18:12:06.620Z,102442.25
2023-04-08T18:14:33.918Z,102441.81
2023-04-08T18:17:02.635Z,102433.09
2023-04-08T18:19:29.916Z,102428.31
2023-04-08T18:21:57.110Z,102419.94
2023-04-08T18:24:24.479Z,102419.94
2023-04-08T18:27:01.451Z,102413.56
2023-04-08T18:29:31.581Z,102419.94
2023-04-08T18:31:58.844Z,102416.75
2023-04-08T18:34:27.947Z,102417.56
2023-04-08T18:36:55.180Z,102421.50
2023-04-08T18:39:22.493Z,102419.91
2023-04-08T18:41:49.789Z,102417.53
2023-04-08T18:44:17.001Z,102419.91
2023-04-08T18:46:44.544Z,102408.78
2023-04-08T18:49:12.032Z,102415.91
2023-04-08T18:51:44.016Z,102414.34
2023-04-08T18:54:16.307Z,102406.41
2023-04-08T18:56:43.537Z,102418.28
2023-04-08T18:59:10.901Z,102413.53
2023-04-08T19:01:39.010Z,102415.16
2023-04-08T19:04:06.492Z,102421.47
2023-04-08T19:06:33.699Z,102419.50
2023-04-08T19:09:02.393Z,102415.91
2023-04-08T19:11:29.784Z,102424.25
2023-04-08T19:13:57.027Z,102419.91
2023-04-08T19:16:25.455Z,102417.53
2023-04-08T19:18:52.810Z,102424.25
2023-04-08T19:21:19.991Z,102413.94
2023-04-08T19:23:47.336Z,102418.28
2023-04-08T19:26:16.036Z,102419.91
2023-04-08T19:28:43.279Z,102428.63
2023-04-08T19:31:17.016Z,102423.47
2023-04-08T19:33:44.706Z,102416.28
2023-04-08T19:36:12.126Z,102413.91
2023-04-08T19:38:39.401Z,102411.13
2023-04-08T19:41:06.852Z,102401.59
2023-04-08T19:43:35.426Z,102399.19
2023-04-08T19:46:03.006Z,102392.03
2023-04-08T19:48:30.279Z,102385.69
2023-04-08T19:50:57.480Z,102392.03
2023-04-08T19:53:24.871Z,102384.13
2023-04-08T19:55:58.735Z,102382.13
2023-04-08T19:58:26.170Z,102380.94
2023-04-08T20:00:54.835Z,102365.81
2023-04-08T20:03:22.977Z,102367.41
2023-04-08T20:05:50.487Z,102364.22
2023-04-08T20:08:17.794Z,102359.09
2023-04-08T20:10:45.042Z,102359.09
2023-04-08T20:13:12.408Z,102352.31
2023-04-08T20:15:40.259Z,102349.50
2023-04-08T20:18:08.872Z,102337.22
2023-04-08T20:20:36.085Z,102333.22
2023-04-08T20:23:03.655Z,102327.66
2023-04-08T20:25:30.815Z,102321.66
2023-04-08T20:27:58.365Z,102315.75
2023-04-08T20:30:25.559Z,102302.22
2023-04-08T20:32:52.876Z,102296.28
2023-04-08T20:35:21.625Z,102298.25
2023-04-08T20:37:48.920Z,102301.03
2023-04-08T20:40:18.178Z,102290.72
2023-04-08T20:42:45.801Z,102288.69
2023-04-08T20:45:13.037Z,102278.78
2023-04-08T20:47:40.374Z,102271.25
2023-04-08T20:50:08.791Z,102272.00
2023-04-08T20:52:37.690Z,102264.88
2023-04-08T20:55:06.305Z,102264.88
2023-04-08T20:57:33.636Z,102261.31
2023-04-08T21:00:01.118Z,102261.69
2023-04-08T21:02:28.697Z,102250.59
2023-04-08T21:04:56.318Z,102254.56
2023-04-08T21:07:24.679Z,102249.78
2023-04-08T21:09:53.544Z,102251.78
2023-04-08T21:12:20.938Z,102252.16
2023-04-08T21:14:48.254Z,102248.59
2023-04-08T21:17:15.647Z,102235.09
2023-04-08T21:19:43.578Z,102241.03
2023-04-08T21:22:10.852Z,102231.09
2023-04-08T21:24:38.108Z,102221.97
2023-04-08T21:27:07.078Z,102214.41
2023-04-08T21:29:34.461Z,102207.28
2023-04-08T21:32:02.278Z,102200.53
2023-04-08T21:34:29.713Z,102200.13
2023-04-08T21:36:57.019Z,102190.59
2023-04-08T21:39:24.190Z,102186.59
2023-04-08T21:41:52.020Z,102178.69
2023-04-08T21:44:20.872Z,102179.88
2023-04-08T21:46:48.877Z,102167.97
2023-04-08T21:49:16.140Z,102163.19
2023-04-08T21:51:43.609Z,102163.59
2023-04-08T21:54:10.812Z,102159.63
2023-04-08T21:56:38.212Z,102156.44
2023-04-08T21:59:05.452Z,102154.47
2023-04-08T22:01:34.226Z,102139.38
2023-04-08T22:04:01.733Z,102139.34
2023-04-08T22:06:32.137Z,102126.28
2023-04-08T22:09:00.102Z,102117.94
2023-04-08T22:11:27.448Z,102110.75
2023-04-08T22:13:54.843Z,102102.06
2023-04-08T22:16:22.229Z,102095.28
2023-04-08T22:18:51.096Z,102090.94
2023-04-08T22:21:18.527Z,102088.94
2023-04-08T22:23:45.865Z,102089.34
2023-04-08T22:26:15.197Z,102076.22
2023-04-08T22:28:43.792Z,102073.88
2023-04-08T22:31:11.782Z,102059.56
2023-04-08T22:33:39.754Z,102050.41
2023-04-08T22:36:08.577Z,102038.13
2023-04-08T22:38:35.861Z,102031.78
2023-04-08T22:41:03.277Z,102027.38
2023-04-08T22:43:30.566Z,102011.50
2023-04-08T22:45:57.740Z,101999.59
2023-04-08T22:48:25.066Z,101998.44
2023-04-08T22:50:52.303Z,101979.78
2023-04-08T22:53:20.972Z,101969.06
2023-04-08T22:55:48.243Z,101952.75
2023-04-08T22:58:15.631Z,101951.19
2023-04-08T23:00:42.877Z,101935.31
2023-04-08T23:03:10.175Z,101913.88
2023-04-08T23:05:37.427Z,101904.78
2023-04-08T23:08:04.718Z,101886.47
2023-04-08T23:10:33.480Z,101883.69
2023-04-08T23:13:00.736Z,101867.03
2023-04-08T23:15:28.068Z,101861.50
2023-04-08T23:17:55.423Z,101849.19
2023-04-08T23:20:22.942Z,101833.31
2023-04-08T23:22:50.505Z,101815.88
2023-04-08T23:25:17.776Z,101804.34
2023-04-08T23:27:46.496Z,101796.41
2023-04-08T23:30:13.711Z,101783.69
2023-04-08T23:32:41.072Z,101774.59
2023-04-08T23:35:08.925Z,101760.31
2023-04-08T23:37:36.235Z,101735.31
2023-04-08T23:40:03.922Z,101726.56
2023-04-08T23:42:31.218Z,101720.63
2023-04-08T23:44:59.745Z,101710.75
2023-04-08T23:47:27.038Z,101697.25
2023-04-08T23:49:54.284Z,101685.34
2023-04-08T23:52:21.540Z,101674.25
2023-04-08T23:54:49.880Z,101664.28
2023-04-08T23:57:17.144Z,101653.19
2023-04-08T23:59:44.406Z,101638.19
